Date,TemperatureHighF,TemperatureAvgF,TemperatureLowF,DewpointHighF,DewpointAvgF,DewpointLowF,HumidityHigh,HumidityAvg,HumidityLow,PressureMaxIn,PressureMinIn,WindSpeedMaxMPH,WindSpeedAvgMPH,GustSpeedMaxMPH,PrecipitationSumIn
2013-1-1,14,2,-6,4,-8,-17,68,61,55,30.06,29.89,4,1,0,0.00
2013-1-2,29,16,-2,17,-16,-62,66,39,1,29.90,29.77,7,1,0,0.00
2013-1-3,29,17,5,9,-16,-75,66,37,2,30.12,29.90,7,2,0,0.00
2013-1-4,34,19,5,23,-28,-74,65,26,1,30.04,29.90,6,2,0,0.01
2013-1-5,39,25,12,21,-24,-71,53,22,5,29.90,29.67,9,3,0,0.11
2013-1-6,27,18,10,16,-4,-70,66,43,2,30.04,29.82,9,2,0,0.00
2013-1-7,43,30,17,32,-4,-68,65,39,3,29.94,29.74,11,3,0,0.00
2013-1-8,43,30,15,30,-25,-69,59,20,5,29.81,29.59,9,2,0,0.00
2013-1-9,43,33,24,30,-33,-63,62,16,1,30.19,29.83,5,1,0,0.00
2013-1-10,41,34,24,30,-36,-63,65,16,1,30.15,29.46,12,3,0,0.05
2013-1-11,50,42,34,-47,-52,-57,1,1,1,29.47,29.19,10,5,0,0.01
2013-1-12,50,24,15,16,2,-59,66,53,1,29.83,29.25,8,4,0,0.00
2013-1-13,18,12,9,8,2,-5,67,63,52,30.07,29.78,7,1,0,0.00
2013-1-14,30,15,4,16,-1,-18,66,50,27,30.23,30.06,4,0,0,0.00
2013-1-15,34,21,9,20,-8,-72,65,41,3,30.14,29.80,8,2,0,0.00
2013-1-16,47,32,18,34,4,-59,64,45,1,29.96,29.60,10,2,0,0.00
2013-1-17,34,23,13,21,-11,-66,66,37,4,30.22,29.96,7,1,0,0.00
2013-1-18,53,38,22,38,3,-64,62,34,1,30.08,29.60,11,3,0,0.00
2013-1-19,51,38,16,38,14,-56,66,45,3,30.02,29.56,12,3,0,0.00
2013-1-20,17,11,2,7,-1,-14,65,58,41,30.16,30.01,12,3,0,0.00
2013-1-21,5,1,-5,-5,-9,-15,65,62,44,30.19,30.07,10,2,0,0.00
2013-1-22,16,8,-5,4,-3,-14,66,62,54,30.19,30.04,3,1,0,0.00
2013-1-23,27,16,3,17,6,-6,66,64,60,30.29,29.91,13,4,0,0.00
2013-1-24,19,10,1,8,-2,-9,64,58,50,30.37,29.95,10,5,0,0.00
2013-1-25,36,23,10,25,11,-7,67,62,38,30.06,29.83,11,4,0,0.00
2013-1-26,32,20,5,17,8,-5,67,59,51,30.11,29.91,11,4,0,0.00
2013-1-27,34,32,28,21,-39,-59,64,16,1,29.90,29.48,11,4,0,0.02
2013-1-28,45,36,32,-50,-56,-58,1,1,1,29.66,29.31,6,2,0,0.07
2013-1-29,51,38,33,-46,-54,-58,1,1,1,29.41,29.25,10,4,0,0.02
2013-1-30,32,23,13,-17,-56,-68,23,3,1,29.59,29.23,17,7,0,0.01
2013-1-31,12,6,-3,2,-8,-24,66,55,22,30.11,29.60,12,5,0,0.00
2013-2-1,22,4,-10,2,-7,-20,67,60,33,30.14,29.77,9,4,0,0.00
2013-2-2,29,20,14,10,-13,-66,61,37,23,29.93,29.71,9,3,0,0.00
2013-2-3,32,25,14,18,1,-64,60,46,9,29.91,29.54,10,4,0,0.00
2013-2-4,27,22,11,14,-23,-71,59,27,1,29.77,29.50,12,3,0,0.00
2013-2-5,43,30,18,26,-31,-67,53,17,2,29.85,29.52,10,2,0,0.06
2013-2-6,41,32,19,13,-42,-66,32,6,2,29.88,29.66,10,3,0,0.00
2013-2-7,37,32,28,-55,-58,-61,0,0,100,29.94,29.63,10,4,0,0.14
2013-2-8,32,28,25,14,-43,-63,49,9,3,30.12,29.94,16,4,0,0.00
2013-2-9,34,30,27,-57,-59,-61,0,0,100,30.02,29.59,14,7,0,0.01
2013-2-10,46,36,31,24,-44,-58,48,6,1,29.59,29.00,14,7,0,0.22
2013-2-11,32,29,27,17,13,3,58,49,35,29.87,29.30,12,4,0,0.00
2013-2-12,46,32,21,29,-2,-65,58,36,7,29.89,29.60,5,1,0,0.00
2013-2-13,49,36,24,34,-8,-63,57,32,3,29.61,29.40,4,1,0,0.00
2013-2-14,42,34,23,27,-2,-58,59,32,1,29.92,29.43,11,4,0,0.00
2013-2-15,29,22,15,13,8,0,59,55,48,30.07,29.92,8,2,0,0.00
2013-2-16,34,22,10,17,-2,-70,55,39,7,30.05,29.84,4,0,0,0.00
2013-2-17,44,30,18,24,3,-67,54,37,1,29.85,29.38,14,6,0,0.00
2013-2-18,44,30,15,28,-3,-62,54,36,1,29.65,29.29,14,3,0,0.00
2013-2-19,22,14,3,1,-4,-17,54,44,35,30.12,29.66,11,4,0,0.00
2013-2-20,26,13,0,-7,-18,-25,37,24,12,30.20,30.04,6,1,0,0.00
2013-2-21,27,21,16,-1,-28,-64,30,16,1,30.08,29.58,9,3,0,0.00
2013-2-22,36,26,22,5,-36,-64,29,11,1,29.72,29.51,5,1,0,0.23
2013-2-23,32,21,11,3,-31,-71,29,14,2,29.72,29.63,2,0,0,0.04
2013-2-24,40,25,10,11,-36,-72,30,12,5,29.82,29.69,4,0,0,0.01
2013-2-25,41,33,27,12,-35,-61,30,10,7,29.84,29.65,4,1,0,0.00
2013-2-26,33,31,29,-41,-58,-60,3,0,2,29.65,29.44,15,6,0,0.00
2013-2-27,35,29,23,-56,-60,-64,1,0,1,29.71,29.52,10,2,0,0.02
2013-2-28,34,28,21,6,-37,-65,29,10,3,29.90,29.72,7,2,0,0.02
2013-3-1,32,26,24,3,-27,-63,30,16,1,30.06,29.89,7,2,0,0.00
2013-3-2,32,22,10,1,-28,-72,30,16,3,30.08,29.92,5,1,0,0.02
2013-3-3,35,28,22,5,-17,-64,30,19,1,29.92,29.67,9,2,0,0.00
2013-3-4,37,31,26,-1,-49,-62,19,3,4,29.70,29.54,10,4,0,0.03
2013-3-5,37,30,25,8,-40,-62,30,8,2,30.03,29.68,9,3,0,0.13
2013-3-6,30,23,10,2,-37,-72,30,12,1,30.17,30.03,10,2,0,0.00
2013-3-7,34,20,5,5,-43,-75,30,9,5,30.13,30.01,8,1,0,0.00
2013-3-8,43,34,24,12,-31,-63,29,10,4,30.04,29.78,11,4,0,0.08
2013-3-9,39,37,35,-54,-55,-56,0,0,100,29.78,29.38,14,4,0,0.78
2013-3-10,38,35,32,-54,-56,-58,0,0,100,29.53,29.38,12,6,0,0.42
2013-3-11,32,28,23,-14,-58,-64,14,1,3,29.68,29.44,10,4,0,0.01
2013-3-12,37,26,17,-4,-51,-68,23,4,1,29.98,29.68,7,3,0,0.02
2013-3-13,32,24,15,2,-32,-69,26,13,3,30.19,29.99,6,2,0,0.06
2013-3-14,49,35,21,16,-34,-65,26,9,1,30.06,29.80,9,3,0,0.00
2013-3-15,51,37,26,-46,-55,-62,1,1,1,29.80,29.47,5,1,0,0.00
2013-3-16,35,32,26,-1,-35,-60,22,8,1,29.95,29.53,15,5,0,0.00
2013-3-17,40,30,20,8,-26,-65,27,13,1,29.94,29.59,10,5,0,0.00
2013-3-18,39,29,19,2,-31,-59,26,12,3,29.73,29.45,12,5,0,0.03
2013-3-19,35,24,14,0,-10,-27,26,21,8,30.00,29.70,12,3,0,0.04
2013-3-20,29,21,13,-9,-14,-24,26,20,10,30.07,29.88,12,5,0,0.00
2013-3-21,34,22,9,-4,-17,-69,26,18,2,29.89,29.73,7,2,0,0.00
2013-3-22,41,29,16,4,-25,-68,26,13,10,29.83,29.74,6,2,0,0.00
2013-3-23,40,32,24,4,-20,-63,26,14,2,29.88,29.75,10,4,0,0.00
2013-3-24,32,30,28,-5,-57,-61,20,1,8,29.78,29.63,14,6,0,0.00
2013-3-25,37,31,27,4,-29,-61,25,11,1,29.99,29.70,16,6,0,0.05
2013-3-26,44,32,22,7,-28,-64,25,12,12,30.08,30.00,8,3,0,0.00
2013-3-27,47,34,20,8,-30,-65,24,9,4,30.09,30.00,6,1,0,0.00
2013-3-28,56,41,27,18,-24,-61,26,10,1,30.07,29.97,8,2,0,0.00
2013-3-29,62,45,28,20,-15,-61,25,12,14,30.02,29.84,10,3,0,0.00
2013-3-30,55,46,37,4,-43,-55,19,2,3,29.84,29.61,8,2,0,0.36
2013-3-31,53,40,32,13,-23,-58,22,11,8,29.84,29.63,10,3,0,0.01
2013-4-1,40,30,22,-3,-24,-64,23,12,1,30.04,29.84,10,4,0,0.00
2013-4-2,46,32,17,4,-32,-67,22,8,1,30.10,30.03,9,2,0,0.00
2013-4-3,50,35,23,1,-34,-64,23,6,2,30.16,29.99,9,2,0,0.00
2013-4-4,64,45,26,20,-2,-62,23,16,7,29.99,29.78,6,2,0,0.00
2013-4-5,59,47,28,10,-21,-61,23,8,3,29.95,29.58,12,5,0,0.00
2013-4-6,68,55,44,32,7,-51,26,19,2,29.58,29.28,12,6,0,0.00
2013-4-7,65,48,33,24,-23,-57,22,8,5,29.69,29.41,7,3,0,0.00
2013-4-8,75,61,43,36,-15,-51,27,9,1,29.54,29.35,10,2,0,0.03
2013-4-9,57,49,42,-43,-47,-52,0,0,100,29.62,29.45,14,6,0,0.92
2013-4-10,42,39,37,-52,-54,-55,0,0,100,29.71,29.44,14,5,0,0.79
2013-4-11,46,40,36,-50,-53,-55,0,0,100,29.47,29.32,6,3,0,0.34
2013-4-12,41,36,33,-52,-55,-57,0,0,100,29.68,29.33,10,4,0,0.00
2013-4-13,53,43,29,8,-30,-60,16,6,1,29.74,29.59,6,3,0,0.46
2013-4-14,67,51,40,-37,-46,-53,0,0,100,29.59,29.15,11,5,0,0.51
2013-4-15,49,42,37,1,-46,-55,16,2,1,29.81,29.38,7,2,0,0.00
2013-4-16,52,41,28,8,-34,-61,17,5,3,30.00,29.81,12,4,0,0.00
2013-4-17,46,42,40,-50,-52,-53,0,0,100,29.95,29.29,12,4,0,2.15
2013-4-18,43,38,34,-52,-54,-57,0,0,100,29.48,29.27,11,6,0,0.55
2013-4-19,42,36,30,-12,-46,-59,10,2,2,29.81,29.40,11,6,0,0.00
2013-4-20,49,38,24,-4,-36,-63,13,4,1,30.03,29.82,7,2,0,0.00
2013-4-21,68,52,40,15,-27,-53,13,4,1,30.01,29.80,18,8,0,0.01
2013-4-22,68,53,37,14,-41,-55,13,2,1,29.92,29.64,9,4,0,0.41
2013-4-23,42,36,32,-13,-52,-58,9,1,1,29.89,29.79,18,7,0,0.01
2013-4-24,56,43,26,1,-39,-62,13,3,1,29.90,29.75,8,3,0,0.00
2013-4-25,62,48,31,4,-28,-59,13,4,1,30.02,29.87,9,3,0,0.00
2013-4-26,68,58,47,19,-23,-49,15,5,2,29.94,29.84,12,6,0,0.00
2013-4-27,70,56,40,20,-28,-53,15,4,1,29.96,29.73,10,3,0,0.00
2013-4-28,78,61,39,27,-17,-54,16,6,3,29.74,29.46,9,3,0,0.00
2013-4-29,82,67,51,37,-19,-46,20,5,2,29.52,29.25,7,3,0,0.00
2013-4-30,86,74,59,41,11,-41,21,12,2,29.61,29.25,14,6,0,0.00
2013-5-1,59,50,40,0,-45,-53,9,0,1,30.05,29.60,19,10,0,0.00
2013-5-2,41,35,33,-53,-56,-58,0,0,100,30.18,30.01,14,9,0,1.47
2013-5-3,35,34,32,-56,-57,-58,0,0,100,30.08,29.69,14,7,0,0.67
2013-5-4,52,42,34,-46,-52,-57,0,0,100,29.82,29.64,12,6,0,0.35
2013-5-5,63,51,42,-39,-46,-52,0,0,100,29.86,29.78,9,3,0,0.00
2013-5-6,76,59,44,20,-31,-50,13,2,1,29.84,29.73,7,2,0,0.00
2013-5-7,80,64,45,19,-22,-50,13,3,2,29.81,29.68,5,1,0,0.00
2013-5-8,77,61,47,23,-32,-49,13,2,5,29.74,29.66,8,1,0,0.16
2013-5-9,71,60,53,-34,-41,-45,0,0,100,29.67,29.56,10,3,0,1.02
2013-5-10,68,55,47,-11,-43,-49,4,0,1,29.78,29.65,11,4,0,0.00
2013-5-11,58,52,42,5,-32,-50,13,3,1,29.95,29.68,18,5,0,0.00
2013-5-12,62,49,32,2,-35,-58,13,3,1,30.00,29.86,9,2,0,0.00
2013-5-13,77,59,33,17,-19,-57,14,5,1,29.90,29.58,16,4,0,0.00
2013-5-14,98,79,57,47,8,-43,22,10,3,29.57,29.30,12,3,0,0.00
2013-5-15,83,71,56,20,-8,-43,14,6,2,29.63,29.45,10,2,0,0.00
2013-5-16,84,70,52,34,-20,-46,17,4,1,29.64,29.52,11,2,0,0.00
2013-5-17,82,72,61,33,-19,-40,17,3,1,29.66,29.55,10,3,0,0.00
2013-5-18,85,73,58,38,-12,-42,19,6,4,29.68,29.50,12,4,0,0.00
2013-5-19,90,74,61,42,-17,-40,21,4,2,29.53,29.27,15,6,0,1.47
2013-5-20,80,68,59,26,-27,-41,14,2,2,29.38,29.26,10,4,0,1.49
2013-5-21,72,64,58,24,-26,-42,16,3,1,29.39,29.27,0,0,0,0.00
2013-5-22,68,59,54,-36,-41,-44,0,0,100,29.61,29.37,0,0,0,0.00
2013-5-23,70,60,53,22,-21,-45,17,5,2,30.01,29.62,0,0,0,0.00
2013-5-24,72,61,46,25,-16,-49,18,7,1,30.11,29.92,0,0,0,0.00
2013-5-25,60,53,51,-41,-45,-46,0,0,100,30.03,29.88,0,0,0,2.61
2013-5-26,58,54,50,-42,-44,-47,0,0,100,29.91,29.64,0,0,0,0.85
2013-5-27,74,65,57,-32,-38,-43,0,0,100,29.74,29.38,0,0,0,1.11
2013-5-28,82,71,63,35,-28,-39,19,2,1,29.48,29.33,0,0,0,0.36
2013-5-29,82,69,63,-28,-35,-39,1,1,1,29.52,29.39,0,0,0,2.15
2013-5-30,72,69,63,-34,-36,-39,1,1,1,29.41,29.28,0,0,0,0.03
2013-5-31,78,70,62,-30,-35,-40,1,1,1,29.42,29.36,0,0,0,0.00
2013-6-1,72,64,57,27,-34,-43,19,1,12,29.46,29.34,0,0,0,0.00
2013-6-2,67,57,50,50,44,-100,93,66,46,29.81,29.65,9,-7,0,0.00
2013-6-3,73,61,44,53,48,43,99,66,42,29.83,29.67,10,3,0,0.00
2013-6-4,66,60,55,60,55,50,96,83,74,29.82,29.68,16,5,0,0.13
2013-6-5,69,62,57,62,59,53,99,89,68,29.74,29.64,7,2,0,0.38
2013-6-6,68,59,51,58,54,51,99,85,59,29.69,29.63,9,2,0,0.00
2013-6-8,68,64,63,62,60,57,93,85,74,29.60,29.50,9,3,0,0.12
2013-6-9,75,66,59,64,61,57,99,86,65,29.51,29.42,9,3,0,0.22
2013-6-10,80,66,57,65,61,56,99,86,57,29.62,29.48,4,1,0,0.00
2013-6-11,88,75,61,72,68,61,99,79,59,29.63,29.44,7,3,0,0.00
2013-6-12,92,77,65,75,69,59,97,78,52,29.57,29.38,14,4,0,0.06
2013-6-13,85,73,61,62,58,54,88,61,36,29.76,29.58,7,3,0,0.00
2013-6-14,74,67,61,66,61,56,97,82,65,29.79,29.57,10,3,0,0.12
2013-6-15,82,71,64,72,67,64,99,88,70,29.73,29.53,9,3,0,0.35
2013-6-16,90,75,65,70,60,49,99,65,26,29.69,29.63,4,1,0,0.00
2013-6-17,92,76,58,63,58,53,99,60,30,29.70,29.61,7,1,0,0.00
2013-6-18,85,73,60,63,58,54,88,61,45,29.74,29.66,6,1,0,0.00
2013-6-19,86,74,64,66,62,58,85,67,45,29.80,29.70,9,4,0,0.00
2013-6-20,88,78,67,68,65,61,83,64,47,29.75,29.63,13,6,0,0.00
2013-6-21,88,79,71,76,70,64,84,75,64,29.71,29.56,9,5,0,0.00
2013-6-22,94,81,70,75,71,64,90,71,52,29.74,29.55,11,4,0,0.01
2013-6-23,82,76,65,72,69,65,99,80,64,29.71,29.54,10,4,0,0.42
2013-6-24,75,71,66,73,69,65,99,94,79,29.69,29.54,8,3,0,0.93
2013-6-25,89,77,68,76,72,67,99,85,54,29.56,29.43,11,3,0,0.34
2013-6-26,92,80,72,79,71,64,98,76,43,29.57,29.37,10,2,0,0.00
2013-6-27,88,75,64,71,65,60,99,74,44,29.67,29.56,6,1,0,0.00
2013-6-28,86,77,66,63,58,53,88,56,34,29.60,29.48,11,4,0,0.00
2013-6-29,76,70,64,64,59,56,83,68,51,29.63,29.48,12,5,0,0.00
2013-6-30,78,68,58,57,53,48,91,61,37,29.81,29.63,10,4,0,0.00
2013-7-1,81,69,54,59,54,49,94,62,36,29.86,29.79,8,2,0,0.00
2013-7-2,84,70,55,60,56,52,98,67,36,29.87,29.72,6,2,0,0.00
2013-7-3,82,70,57,63,59,55,99,72,44,29.80,29.70,6,2,0,0.00
2013-7-4,87,74,60,63,60,58,95,64,41,29.76,29.66,9,4,0,0.00
2013-7-5,88,77,61,65,62,58,89,62,45,29.72,29.62,13,5,0,0.00
2013-7-6,92,78,66,68,64,61,84,65,41,29.69,29.58,10,4,0,0.00
2013-7-7,95,82,70,72,68,64,85,65,41,29.64,29.57,9,4,0,0.00
2013-7-8,91,82,75,75,72,68,93,73,55,29.70,29.61,7,2,0,0.02
2013-7-9,95,82,73,78,74,72,99,80,52,29.69,29.57,9,1,0,0.05
2013-7-10,86,75,64,74,61,54,90,64,36,29.78,29.63,9,3,0,0.00
2013-7-11,86,72,58,62,58,55,97,66,40,29.85,29.75,8,2,0,0.00
2013-7-12,86,74,62,64,61,57,87,65,45,29.81,29.72,13,5,0,0.00
2013-7-13,79,71,64,65,60,56,80,70,60,29.80,29.73,9,4,0,0.00
2013-7-14,88,77,63,67,64,60,90,66,46,29.91,29.80,8,3,0,0.00
2013-7-15,90,76,64,73,68,62,95,77,56,29.97,29.87,6,2,0,0.00
2013-7-16,94,83,72,74,72,70,95,71,48,29.99,29.92,8,3,0,0.00
2013-7-17,97,85,70,75,72,69,98,68,44,30.03,29.89,7,2,0,0.00
2013-7-18,98,86,72,73,70,67,95,62,38,29.91,29.66,7,2,0,0.00
2013-7-22,67,55,66,66,38,-100,98,82,97,29.54,29.52,2,-166,0,0.78
2013-7-23,77,69,61,66,61,57,99,78,55,29.73,29.52,9,2,0,0.00
2013-7-24,81,69,56,61,58,55,98,72,47,29.80,29.71,5,1,0,0.00
2013-7-25,88,74,58,67,63,58,99,71,44,29.79,29.65,7,2,0,0.00
2013-7-26,78,71,63,69,60,53,99,71,43,29.77,29.67,11,3,0,0.00
2013-7-27,75,62,52,54,48,44,94,62,37,29.82,29.71,8,3,0,0.00
2013-7-28,81,63,49,55,50,46,90,63,37,29.80,29.71,8,2,0,0.00
2013-7-29,75,65,48,62,56,47,99,74,53,29.86,29.79,8,2,0,0.00
2013-7-30,69,66,63,66,64,60,99,94,82,29.81,29.76,5,2,0,0.42
2013-7-31,84,72,62,69,65,62,99,80,52,29.84,29.73,5,1,0,0.00
2013-8-1,89,72,58,66,62,57,99,76,36,29.81,29.62,4,1,0,0.00
2013-8-2,87,71,63,67,63,59,99,78,51,29.74,29.61,6,2,0,0.00
2013-8-3,79,69,58,62,58,53,95,69,42,29.91,29.74,5,2,0,0.00
2013-8-4,82,69,54,60,57,53,98,69,42,29.93,29.78,8,2,0,0.00
2013-8-5,86,73,63,72,66,58,95,79,59,29.77,29.55,8,2,0,0.00
2013-8-6,93,77,62,73,67,61,99,75,45,29.62,29.50,8,2,0,0.00
2013-8-7,80,73,65,69,66,62,99,80,58,29.74,29.52,9,2,0,0.46
2013-8-8,81,70,57,64,60,55,93,74,50,29.76,29.70,6,1,0,0.00
2013-8-9,80,71,61,68,62,55,97,75,47,29.86,29.72,7,2,0,0.00
2013-8-10,85,71,54,64,59,54,99,71,42,29.93,29.81,6,1,0,0.00
2013-8-11,86,74,62,67,63,58,92,72,53,29.86,29.70,6,2,0,0.14
2013-8-12,83,71,60,68,63,55,99,77,44,29.78,29.71,8,2,0,0.03
2013-8-13,77,66,54,61,56,52,99,74,51,29.91,29.77,6,2,0,0.00
2013-8-14,79,64,48,56,51,46,97,67,32,29.97,29.84,5,1,0,0.00
2013-8-15,74,65,55,58,56,53,93,73,53,29.89,29.82,7,2,0,0.00
2013-8-16,80,65,50,59,54,49,98,72,43,29.94,29.87,5,1,0,0.00
2013-8-17,84,68,50,61,56,50,98,68,35,29.96,29.85,6,1,0,0.00
2013-8-18,85,69,53,62,58,52,98,69,40,29.91,29.79,7,2,0,0.00
2013-8-19,87,71,57,66,62,56,98,74,47,29.82,29.70,7,2,0,0.00
2013-8-20,91,76,67,70,66,61,86,71,48,29.74,29.64,10,3,0,0.00
2013-8-21,94,80,69,71,68,66,89,69,45,29.73,29.66,5,2,0,0.00
2013-8-22,87,76,68,70,68,65,94,79,56,29.82,29.70,6,1,0,0.00
2013-8-23,86,75,64,73,69,63,99,82,63,29.85,29.76,9,2,0,0.00
2013-8-24,90,78,68,74,70,67,95,77,54,29.88,29.77,12,4,0,0.00
2013-8-25,96,82,69,72,69,65,87,67,44,29.90,29.77,10,4,0,0.00
2013-8-26,100,85,71,74,70,68,91,65,39,29.84,29.67,6,2,0,0.00
2013-8-27,100,86,74,72,70,69,84,61,40,29.69,29.57,9,2,0,0.00
2013-8-28,99,84,69,72,69,66,91,64,38,29.72,29.63,4,1,0,0.00
2013-8-29,96,82,67,72,70,66,95,69,44,29.76,29.64,7,2,0,0.00
2013-8-30,102,86,69,79,73,68,95,68,38,29.64,29.49,6,2,0,0.00
2013-8-31,93,79,67,72,70,66,94,74,46,29.58,29.49,6,1,0,0.00
2013-9-1,84,75,63,70,63,57,97,71,44,29.69,29.44,16,3,0,0.06
2013-9-2,79,66,56,58,55,50,95,70,38,29.79,29.68,8,2,0,0.00
2013-9-3,84,65,46,60,54,46,98,70,38,29.86,29.72,5,1,0,0.00
2013-9-4,92,74,55,67,60,53,94,68,38,29.87,29.76,4,1,0,0.00
2013-9-5,92,78,64,69,66,62,93,70,43,29.93,29.84,5,1,0,0.00
2013-9-6,93,79,63,68,63,59,97,63,35,29.86,29.66,8,3,0,0.00
2013-9-7,96,81,70,73,68,60,88,65,44,29.68,29.57,5,2,0,0.00
2013-9-8,85,76,70,72,70,69,95,83,66,29.68,29.54,9,3,0,0.00
2013-9-9,102,85,70,71,67,62,97,60,29,29.58,29.49,12,2,0,0.00
2013-9-10,100,84,68,73,65,60,91,57,33,29.72,29.58,8,2,0,0.07
2013-9-11,86,75,67,70,68,65,98,80,52,29.82,29.71,5,1,0,0.54
2013-9-12,78,68,54,65,54,46,97,67,35,29.91,29.78,9,2,0,0.00
2013-9-13,73,60,47,51,48,46,96,67,40,29.99,29.83,6,1,0,0.00
2013-9-14,77,62,44,49,45,42,95,58,32,29.87,29.63,13,3,0,0.00
2013-9-15,72,65,56,62,55,47,88,70,52,29.97,29.59,8,4,0,0.00
2013-9-16,68,58,51,55,53,50,98,84,58,30.11,29.98,7,2,0,0.00
2013-9-17,64,57,52,64,56,50,99,96,86,30.00,29.73,9,4,0,0.46
2013-9-18,90,75,64,72,68,64,99,80,52,29.73,29.45,14,5,0,0.03
2013-9-19,87,74,65,73,68,64,99,84,56,29.59,29.43,14,3,0,0.98
2013-9-20,67,60,51,65,53,46,99,78,59,29.71,29.59,7,2,0,0.00
2013-9-21,72,56,42,51,46,42,99,73,38,29.77,29.63,5,1,0,0.00
2013-9-22,78,61,46,57,51,46,99,73,46,29.72,29.60,11,3,0,0.00
2013-9-23,76,63,51,56,51,49,92,69,44,29.71,29.56,12,5,0,0.00
2013-9-24,75,63,53,59,54,49,86,72,56,29.63,29.58,8,3,0,0.00
2013-9-25,79,64,51,60,55,50,96,73,49,29.69,29.56,8,2,0,0.00
2013-9-26,83,70,57,65,59,53,89,70,49,29.68,29.58,15,5,0,0.00
2013-9-27,86,73,63,65,62,60,91,70,45,29.71,29.59,14,6,0,0.00
2013-9-28,70,61,46,66,57,46,99,88,70,29.78,29.51,10,4,0,0.21
2013-9-29,76,59,41,53,46,40,99,68,36,29.81,29.65,11,3,0,0.00
2013-9-30,77,63,49,57,51,47,94,69,39,29.67,29.46,12,4,0,0.00
2013-10-1,85,67,54,59,56,50,97,70,37,29.70,29.52,4,2,0,0.00
2013-10-2,84,69,54,65,56,44,88,65,37,29.76,29.58,10,3,0,0.00
2013-10-3,80,71,64,69,64,61,99,82,54,29.58,29.48,8,2,0,0.04
2013-10-4,75,68,62,72,66,61,99,95,83,29.62,29.46,9,3,0,1.08
2013-10-5,74,56,45,67,44,36,83,65,44,29.65,29.52,8,2,0,0.00
2013-10-6,50,47,43,48,42,36,99,84,65,29.63,29.47,8,2,0,0.07
2013-10-7,76,56,40,48,45,39,99,71,31,29.77,29.63,7,1,0,0.00
2013-10-8,77,60,44,50,47,43,99,66,34,29.82,29.71,14,4,0,0.00
2013-10-9,75,61,49,52,49,47,95,67,37,29.85,29.76,9,4,0,0.00
2013-10-10,78,61,45,55,50,44,97,69,41,29.81,29.62,10,3,0,0.00
2013-10-11,74,65,54,63,58,52,96,80,65,29.63,29.46,16,6,0,0.00
2013-10-12,68,57,41,63,42,35,90,60,30,29.99,29.53,10,2,0,0.00
2013-10-13,68,48,32,42,36,32,99,68,30,30.20,29.99,6,1,0,0.00
2013-10-14,64,52,37,47,39,33,91,63,38,30.10,29.56,12,5,0,0.01
2013-10-15,58,51,47,58,46,42,99,83,66,29.65,29.50,11,4,0,0.45
2013-10-16,50,46,36,44,42,36,98,87,75,29.74,29.66,7,2,0,0.00
2013-10-17,64,48,36,44,39,35,99,75,36,29.70,29.56,6,1,0,0.00
2013-10-18,52,44,35,40,34,28,96,70,42,29.80,29.69,6,2,0,0.00
2013-10-19,58,45,34,37,34,31,90,67,40,29.70,29.52,6,2,0,0.00
2013-10-20,63,48,37,45,38,32,83,69,45,29.67,29.44,12,2,0,0.00
2013-10-21,51,40,32,35,29,23,90,66,39,29.81,29.68,9,2,0,0.00
2013-10-22,39,37,35,39,35,30,99,90,78,29.81,29.62,6,2,0,0.09
2013-10-23,43,37,28,37,32,26,97,82,57,29.88,29.79,5,1,0,0.01
2013-10-24,46,36,29,32,28,23,98,74,50,30.11,29.88,7,2,0,0.00
2013-10-25,56,40,23,33,29,22,99,69,40,30.15,29.77,9,2,0,0.00
2013-10-26,52,43,28,34,30,26,92,61,38,29.89,29.69,11,3,0,0.00
2013-10-27,62,40,22,36,30,21,99,73,37,29.87,29.59,10,2,0,0.00
2013-10-28,54,42,31,40,35,30,97,77,58,30.03,29.71,9,4,0,0.00
2013-10-29,57,47,39,48,41,34,87,80,68,30.03,29.75,8,3,0,0.00
2013-10-30,63,56,51,59,55,48,99,97,85,29.74,29.36,10,4,0,1.17
2013-10-31,59,46,42,58,44,40,99,94,83,29.37,29.19,6,2,0,0.01
2013-11-1,56,47,40,42,40,38,93,80,51,29.60,29.24,8,2,0,0.00
2013-11-2,55,44,31,41,36,30,99,76,43,29.88,29.60,10,3,0,0.00
2013-11-3,57,44,30,38,34,29,99,72,41,29.90,29.67,16,7,0,0.00
2013-11-4,54,48,45,48,43,36,96,83,64,29.90,29.66,12,5,0,0.11
2013-11-5,56,48,42,56,47,40,99,96,85,29.92,29.50,11,4,0,0.86
2013-11-6,45,37,26,42,31,24,99,83,45,30.00,29.56,14,4,0,0.00
2013-11-7,48,34,25,36,29,24,99,83,46,30.05,29.97,7,2,0,0.00
2013-11-8,57,48,24,39,34,23,97,60,46,30.03,29.51,15,7,0,0.00
2013-11-9,56,47,36,40,36,30,82,66,47,30.04,29.56,8,3,0,0.00
2013-11-10,47,38,23,34,29,22,98,72,53,30.18,29.89,5,2,0,0.00
2013-11-11,46,32,17,35,25,12,94,77,61,30.45,29.82,17,6,0,0.00
2013-11-12,34,19,9,14,11,8,92,74,40,30.60,30.32,5,2,0,0.00
2013-11-13,51,33,18,26,18,12,82,56,36,30.32,29.77,8,4,0,0.00
2013-11-14,55,41,32,32,26,20,85,57,36,29.77,29.61,6,2,0,0.00
2013-11-15,57,40,23,37,32,22,99,74,47,29.65,29.46,8,3,0,0.00
2013-11-16,64,52,40,58,49,36,98,88,79,29.46,29.02,13,5,0,0.00
2013-11-17,53,45,39,50,43,36,99,91,71,29.67,28.99,11,3,0,0.23
2013-11-18,50,36,24,36,31,24,99,84,52,30.01,29.68,9,2,0,0.00
2013-11-19,51,38,24,37,31,23,99,77,54,30.01,29.75,12,6,0,0.00
2013-11-20,43,39,37,38,35,28,99,85,58,29.76,29.64,14,7,0,0.00
2013-11-21,38,32,26,38,31,25,99,98,95,30.17,29.75,12,5,0,0.00
2013-11-22,29,19,9,25,16,8,99,89,66,30.38,30.18,12,3,0,0.00
2013-11-23,19,11,0,13,5,-3,94,78,60,30.58,30.32,14,4,0,0.00
2013-11-24,27,14,-1,14,7,-3,94,73,46,30.50,29.98,10,4,0,0.00
2013-11-25,40,28,17,28,22,14,99,82,60,29.97,29.81,6,2,0,0.12
2013-11-26,29,22,14,25,15,8,99,74,50,30.09,29.85,14,4,0,0.00
2013-11-27,28,18,5,15,10,3,93,73,51,30.13,29.79,9,3,0,0.00
2013-11-28,33,21,10,20,15,8,98,78,56,30.25,29.76,8,2,0,0.00
2013-11-29,37,22,5,26,17,3,95,80,61,30.27,29.96,13,4,0,0.00
2013-11-30,52,34,23,35,28,21,99,81,52,29.95,29.78,5,2,0,0.00
2013-12-1,41,33,23,32,29,22,99,86,70,29.91,29.65,4,2,0,0.00
2013-12-2,46,37,32,39,34,30,99,89,76,29.63,29.28,14,4,0,0.00
2013-12-3,41,36,32,40,36,32,99,99,99,29.39,29.27,6,2,0,0.00
2013-12-4,38,31,18,38,30,14,99,96,84,29.63,29.22,10,3,0,0.02
2013-12-5,19,13,7,14,6,1,86,75,64,30.14,29.64,12,4,0,0.00
2013-12-6,14,6,0,3,-1,-5,80,71,59,30.35,30.12,9,4,0,0.00
2013-12-7,15,10,7,2,0,-3,69,62,50,30.51,30.28,8,2,0,0.00
2013-12-8,20,15,10,17,11,2,98,85,67,30.26,29.73,8,3,0,0.00
2013-12-9,15,2,-12,14,-3,-14,96,81,57,30.02,29.79,6,2,0,0.00
2013-12-10,23,16,-1,16,8,-5,94,73,52,29.95,29.70,10,3,0,0.00
2013-12-11,18,4,-9,17,-1,-11,97,80,54,30.37,29.94,7,2,0,0.00
2013-12-12,31,13,-1,17,7,-4,96,78,56,30.22,29.85,7,2,0,0.02
2013-12-13,32,20,5,23,16,3,98,87,66,29.85,29.70,9,2,0,0.00
2013-12-14,25,18,12,20,16,8,97,88,73,29.89,29.79,10,4,0,0.00
2013-12-15,16,12,7,9,8,5,91,81,69,29.88,29.78,6,2,0,0.00
2013-12-16,26,18,12,23,16,9,97,91,87,29.83,29.69,6,2,0,0.00
2013-12-17,39,25,10,29,19,9,99,80,49,29.93,29.79,11,2,0,0.00
2013-12-18,50,29,8,34,23,7,99,81,51,29.90,29.46,9,2,0,0.00
2013-12-19,35,30,23,31,28,23,99,93,83,29.60,29.48,10,4,0,0.00
2013-12-20,27,24,20,26,23,20,99,98,97,29.63,29.53,9,4,0,0.00
2013-12-21,25,22,18,25,21,16,99,95,90,29.63,29.48,9,4,0,0.00
2013-12-22,25,18,4,25,15,1,99,91,81,30.05,29.48,13,5,0,0.00
2013-12-23,10,0,-11,0,-6,-15,89,75,58,30.28,30.05,8,3,0,0.00
2013-12-24,13,-2,-22,13,-7,-24,98,80,58,30.29,29.92,10,4,0,0.00
2013-12-25,34,23,14,29,21,13,99,91,79,29.99,29.87,8,2,0,0.00
2013-12-26,38,25,13,27,21,12,99,85,64,29.95,29.81,6,2,0,0.05
2013-12-27,48,28,7,32,22,6,99,81,52,29.97,29.78,7,2,0,0.02
2013-12-28,50,37,24,33,29,22,98,76,52,29.80,29.50,12,4,0,0.00
2013-12-29,24,7,-3,22,0,-10,93,72,51,30.06,29.68,13,6,0,0.00
2013-12-30,11,4,-6,9,0,-11,95,83,70,30.05,29.86,9,2,0,0.00
2013-12-31,12,5,-8,6,1,-11,96,85,72,30.04,29.92,7,3,0,0.00
2014-1-1,9,6,5,5,2,0,89,84,77,30.10,29.93,10,6,0,0.00
2014-1-2,8,1,-13,0,-4,-16,90,78,65,30.20,30.05,10,4,0,0.00